Terminal Aerodrome Forecast
Issued by NWS Portland, OR

Home | Current Version | Previous Version | Text Only | Print | Product List | Glossary On
Versions: 1 2 3 4 5 6 7 8 9 10 11 12 13 14 15 16 17 18 19 20 21 22 23 24 25 26 27 28
000
FTUS46 KPQR 261120
TAFPDX
TAF
KPDX 261120Z 2612/2712 10007KT P6SM VCSH BKN035 OVC050
     FM261500 10013KT P6SM -RA SCT025 OVC040
     FM262100 17008KT 6SM -RA BR BKN025 OVC040
     FM270000 20005KT P6SM -SHRA SCT025 BKN040=

USA.gov is the U.S. government's official web portal to all federal, state and local government web resources and services.